sensor_id;sensor_type;location;lat;lon;timestamp;P1;durP1;ratioP1;P2;durP2;ratioP2
43744;SDS011;29359;53.048;8.732;2023-06-19T00:01:10;9.27;;;4.38;;
43744;SDS011;29359;53.048;8.732;2023-06-19T00:03:12;4.32;;;3.90;;
43744;SDS011;29359;53.048;8.732;2023-06-19T00:05:14;4.45;;;3.83;;
43744;SDS011;29359;53.048;8.732;2023-06-19T00:07:15;6.38;;;4.00;;
43744;SDS011;29359;53.048;8.732;2023-06-19T00:09:17;5.53;;;4.50;;
43744;SDS011;29359;53.048;8.732;2023-06-19T00:11:18;4.78;;;4.40;;
43744;SDS011;29359;53.048;8.732;2023-06-19T00:13:20;4.50;;;4.10;;
43744;SDS011;29359;53.048;8.732;2023-06-19T00:15:22;6.25;;;4.43;;
43744;SDS011;29359;53.048;8.732;2023-06-19T00:17:24;4.90;;;4.32;;
43744;SDS011;29359;53.048;8.732;2023-06-19T00:19:27;4.95;;;3.95;;
43744;SDS011;29359;53.048;8.732;2023-06-19T00:21:29;7.10;;;4.40;;
43744;SDS011;29359;53.048;8.732;2023-06-19T00:23:31;5.88;;;4.20;;
43744;SDS011;29359;53.048;8.732;2023-06-19T00:25:32;4.90;;;4.50;;
43744;SDS011;29359;53.048;8.732;2023-06-19T00:27:34;4.85;;;4.35;;
43744;SDS011;29359;53.048;8.732;2023-06-19T00:29:35;6.50;;;4.32;;
43744;SDS011;29359;53.048;8.732;2023-06-19T00:31:37;5.85;;;4.55;;
43744;SDS011;29359;53.048;8.732;2023-06-19T00:33:39;6.05;;;4.22;;
43744;SDS011;29359;53.048;8.732;2023-06-19T00:35:41;4.70;;;4.30;;
43744;SDS011;29359;53.048;8.732;2023-06-19T00:37:42;6.32;;;4.63;;
43744;SDS011;29359;53.048;8.732;2023-06-19T00:39:47;5.07;;;4.60;;
43744;SDS011;29359;53.048;8.732;2023-06-19T00:41:50;4.35;;;4.03;;
43744;SDS011;29359;53.048;8.732;2023-06-19T00:43:53;5.75;;;4.18;;
43744;SDS011;29359;53.048;8.732;2023-06-19T00:45:56;5.50;;;4.32;;
43744;SDS011;29359;53.048;8.732;2023-06-19T00:47:59;5.05;;;4.68;;
43744;SDS011;29359;53.048;8.732;2023-06-19T00:50:01;4.70;;;4.30;;
43744;SDS011;29359;53.048;8.732;2023-06-19T00:52:03;4.70;;;4.30;;
43744;SDS011;29359;53.048;8.732;2023-06-19T00:54:05;5.43;;;4.18;;
43744;SDS011;29359;53.048;8.732;2023-06-19T00:56:07;5.38;;;4.40;;
43744;SDS011;29359;53.048;8.732;2023-06-19T00:58:09;7.13;;;4.65;;
43744;SDS011;29359;53.048;8.732;2023-06-19T01:00:11;7.65;;;4.20;;
43744;SDS011;29359;53.048;8.732;2023-06-19T01:02:13;6.85;;;4.80;;
43744;SDS011;29359;53.048;8.732;2023-06-19T01:04:16;4.55;;;4.25;;
43744;SDS011;29359;53.048;8.732;2023-06-19T01:06:20;5.65;;;4.05;;
43744;SDS011;29359;53.048;8.732;2023-06-19T01:08:44;4.32;;;4.03;;
43744;SDS011;29359;53.048;8.732;2023-06-19T01:10:56;4.80;;;4.00;;
43744;SDS011;29359;53.048;8.732;2023-06-19T01:13:10;4.95;;;3.92;;
43744;SDS011;29359;53.048;8.732;2023-06-19T01:15:17;5.63;;;4.32;;
43744;SDS011;29359;53.048;8.732;2023-06-19T01:17:19;5.15;;;4.22;;
43744;SDS011;29359;53.048;8.732;2023-06-19T01:19:22;4.60;;;4.20;;
43744;SDS011;29359;53.048;8.732;2023-06-19T01:21:24;4.65;;;4.25;;
43744;SDS011;29359;53.048;8.732;2023-06-19T01:23:27;4.75;;;4.28;;
43744;SDS011;29359;53.048;8.732;2023-06-19T01:25:28;5.57;;;4.22;;
43744;SDS011;29359;53.048;8.732;2023-06-19T01:27:30;4.40;;;4.10;;
43744;SDS011;29359;53.048;8.732;2023-06-19T01:29:33;5.35;;;4.90;;
43744;SDS011;29359;53.048;8.732;2023-06-19T01:31:38;4.63;;;4.22;;
43744;SDS011;29359;53.048;8.732;2023-06-19T01:33:47;4.78;;;4.38;;
43744;SDS011;29359;53.048;8.732;2023-06-19T01:35:51;5.40;;;4.15;;
43744;SDS011;29359;53.048;8.732;2023-06-19T01:37:53;4.65;;;4.20;;
43744;SDS011;29359;53.048;8.732;2023-06-19T01:39:56;8.18;;;4.72;;
43744;SDS011;29359;53.048;8.732;2023-06-19T01:41:59;4.50;;;4.20;;
43744;SDS011;29359;53.048;8.732;2023-06-19T01:44:01;6.78;;;4.68;;
43744;SDS011;29359;53.048;8.732;2023-06-19T01:46:03;5.40;;;4.90;;
43744;SDS011;29359;53.048;8.732;2023-06-19T01:48:05;5.18;;;4.68;;
43744;SDS011;29359;53.048;8.732;2023-06-19T01:50:07;5.68;;;4.10;;
43744;SDS011;29359;53.048;8.732;2023-06-19T01:52:09;4.90;;;4.50;;
43744;SDS011;29359;53.048;8.732;2023-06-19T01:54:11;5.40;;;4.90;;
43744;SDS011;29359;53.048;8.732;2023-06-19T01:56:12;6.78;;;4.53;;
43744;SDS011;29359;53.048;8.732;2023-06-19T01:58:14;4.30;;;3.97;;
43744;SDS011;29359;53.048;8.732;2023-06-19T02:00:15;5.07;;;4.68;;
43744;SDS011;29359;53.048;8.732;2023-06-19T02:02:17;4.43;;;4.00;;
43744;SDS011;29359;53.048;8.732;2023-06-19T02:04:19;7.82;;;4.93;;
43744;SDS011;29359;53.048;8.732;2023-06-19T02:06:20;4.85;;;4.35;;
43744;SDS011;29359;53.048;8.732;2023-06-19T02:08:22;5.28;;;4.43;;
43744;SDS011;29359;53.048;8.732;2023-06-19T02:10:24;4.85;;;4.20;;
43744;SDS011;29359;53.048;8.732;2023-06-19T02:12:26;4.47;;;4.07;;
43744;SDS011;29359;53.048;8.732;2023-06-19T02:14:28;6.90;;;4.60;;
43744;SDS011;29359;53.048;8.732;2023-06-19T02:16:29;4.80;;;4.35;;
43744;SDS011;29359;53.048;8.732;2023-06-19T02:18:31;4.90;;;4.30;;
43744;SDS011;29359;53.048;8.732;2023-06-19T02:20:33;5.50;;;4.38;;
43744;SDS011;29359;53.048;8.732;2023-06-19T02:22:35;5.10;;;4.60;;
43744;SDS011;29359;53.048;8.732;2023-06-19T02:24:37;8.23;;;4.07;;
43744;SDS011;29359;53.048;8.732;2023-06-19T02:26:40;4.22;;;3.83;;
43744;SDS011;29359;53.048;8.732;2023-06-19T02:28:42;4.93;;;3.88;;
43744;SDS011;29359;53.048;8.732;2023-06-19T02:30:43;4.40;;;3.90;;
43744;SDS011;29359;53.048;8.732;2023-06-19T02:32:45;4.85;;;4.45;;
43744;SDS011;29359;53.048;8.732;2023-06-19T02:34:47;5.15;;;4.32;;
43744;SDS011;29359;53.048;8.732;2023-06-19T02:36:48;4.90;;;4.50;;
43744;SDS011;29359;53.048;8.732;2023-06-19T02:38:50;6.25;;;4.57;;
43744;SDS011;29359;53.048;8.732;2023-06-19T02:40:51;5.35;;;4.95;;
43744;SDS011;29359;53.048;8.732;2023-06-19T02:42:53;6.20;;;4.60;;
43744;SDS011;29359;53.048;8.732;2023-06-19T02:44:54;5.20;;;4.80;;
43744;SDS011;29359;53.048;8.732;2023-06-19T02:47:04;4.80;;;4.38;;
43744;SDS011;29359;53.048;8.732;2023-06-19T02:49:06;5.05;;;4.38;;
43744;SDS011;29359;53.048;8.732;2023-06-19T02:51:07;5.28;;;4.78;;
43744;SDS011;29359;53.048;8.732;2023-06-19T02:53:09;5.95;;;4.72;;
43744;SDS011;29359;53.048;8.732;2023-06-19T02:55:10;4.93;;;4.53;;
43744;SDS011;29359;53.048;8.732;2023-06-19T02:57:12;5.13;;;4.50;;
43744;SDS011;29359;53.048;8.732;2023-06-19T02:59:13;5.40;;;4.47;;
43744;SDS011;29359;53.048;8.732;2023-06-19T03:01:15;5.03;;;4.53;;
43744;SDS011;29359;53.048;8.732;2023-06-19T03:03:17;4.90;;;4.50;;
43744;SDS011;29359;53.048;8.732;2023-06-19T03:05:18;8.05;;;4.70;;
43744;SDS011;29359;53.048;8.732;2023-06-19T03:07:20;5.13;;;4.50;;
43744;SDS011;29359;53.048;8.732;2023-06-19T03:09:22;5.63;;;4.75;;
43744;SDS011;29359;53.048;8.732;2023-06-19T03:11:23;5.13;;;4.72;;
43744;SDS011;29359;53.048;8.732;2023-06-19T03:13:25;5.93;;;4.80;;
43744;SDS011;29359;53.048;8.732;2023-06-19T03:15:26;5.07;;;4.68;;
43744;SDS011;29359;53.048;8.732;2023-06-19T03:17:28;5.65;;;5.13;;
43744;SDS011;29359;53.048;8.732;2023-06-19T03:19:30;6.63;;;5.00;;
43744;SDS011;29359;53.048;8.732;2023-06-19T03:21:31;5.63;;;4.53;;
43744;SDS011;29359;53.048;8.732;2023-06-19T03:23:33;5.10;;;4.65;;
43744;SDS011;29359;53.048;8.732;2023-06-19T03:25:34;4.95;;;4.47;;
43744;SDS011;29359;53.048;8.732;2023-06-19T03:27:36;5.20;;;4.70;;
43744;SDS011;29359;53.048;8.732;2023-06-19T03:29:38;6.70;;;4.50;;
43744;SDS011;29359;53.048;8.732;2023-06-19T03:31:39;5.35;;;4.90;;
43744;SDS011;29359;53.048;8.732;2023-06-19T03:33:41;5.32;;;4.85;;
43744;SDS011;29359;53.048;8.732;2023-06-19T03:35:43;5.47;;;4.60;;
43744;SDS011;29359;53.048;8.732;2023-06-19T03:37:45;5.07;;;4.63;;
43744;SDS011;29359;53.048;8.732;2023-06-19T03:39:46;5.15;;;4.60;;
43744;SDS011;29359;53.048;8.732;2023-06-19T03:41:48;5.60;;;4.45;;
43744;SDS011;29359;53.048;8.732;2023-06-19T03:43:49;5.75;;;5.05;;
43744;SDS011;29359;53.048;8.732;2023-06-19T03:45:51;7.60;;;5.00;;
43744;SDS011;29359;53.048;8.732;2023-06-19T03:47:52;5.13;;;4.60;;
43744;SDS011;29359;53.048;8.732;2023-06-19T03:49:54;5.53;;;5.03;;
43744;SDS011;29359;53.048;8.732;2023-06-19T03:51:56;5.63;;;5.18;;
43744;SDS011;29359;53.048;8.732;2023-06-19T03:53:57;6.50;;;4.63;;
43744;SDS011;29359;53.048;8.732;2023-06-19T03:55:59;5.30;;;4.90;;
43744;SDS011;29359;53.048;8.732;2023-06-19T03:58:00;5.20;;;4.75;;
43744;SDS011;29359;53.048;8.732;2023-06-19T04:00:02;4.70;;;4.30;;
43744;SDS011;29359;53.048;8.732;2023-06-19T04:02:08;4.95;;;4.45;;
43744;SDS011;29359;53.048;8.732;2023-06-19T04:04:10;5.05;;;4.60;;
43744;SDS011;29359;53.048;8.732;2023-06-19T04:06:12;6.95;;;4.63;;
43744;SDS011;29359;53.048;8.732;2023-06-19T04:08:13;6.78;;;5.03;;
43744;SDS011;29359;53.048;8.732;2023-06-19T04:10:15;5.65;;;5.10;;
43744;SDS011;29359;53.048;8.732;2023-06-19T04:12:17;4.93;;;4.43;;
43744;SDS011;29359;53.048;8.732;2023-06-19T04:14:18;5.30;;;4.72;;
43744;SDS011;29359;53.048;8.732;2023-06-19T04:16:20;5.32;;;4.93;;
43744;SDS011;29359;53.048;8.732;2023-06-19T04:18:21;6.22;;;5.03;;
43744;SDS011;29359;53.048;8.732;2023-06-19T04:20:23;5.38;;;5.00;;
43744;SDS011;29359;53.048;8.732;2023-06-19T04:22:25;8.23;;;4.97;;
43744;SDS011;29359;53.048;8.732;2023-06-19T04:24:26;7.10;;;4.97;;
43744;SDS011;29359;53.048;8.732;2023-06-19T04:26:28;6.07;;;4.88;;
43744;SDS011;29359;53.048;8.732;2023-06-19T04:28:30;7.13;;;4.80;;
43744;SDS011;29359;53.048;8.732;2023-06-19T04:30:31;5.78;;;5.03;;
43744;SDS011;29359;53.048;8.732;2023-06-19T04:32:33;5.82;;;4.53;;
43744;SDS011;29359;53.048;8.732;2023-06-19T04:34:36;7.28;;;4.97;;
43744;SDS011;29359;53.048;8.732;2023-06-19T04:36:39;6.32;;;4.70;;
43744;SDS011;29359;53.048;8.732;2023-06-19T04:38:41;8.85;;;4.47;;
43744;SDS011;29359;53.048;8.732;2023-06-19T04:40:43;5.35;;;4.47;;
43744;SDS011;29359;53.048;8.732;2023-06-19T04:42:44;5.20;;;4.80;;
43744;SDS011;29359;53.048;8.732;2023-06-19T04:44:46;6.30;;;4.72;;
43744;SDS011;29359;53.048;8.732;2023-06-19T04:46:48;5.05;;;4.65;;
43744;SDS011;29359;53.048;8.732;2023-06-19T04:48:50;5.60;;;4.95;;
43744;SDS011;29359;53.048;8.732;2023-06-19T04:50:52;5.05;;;4.65;;
43744;SDS011;29359;53.048;8.732;2023-06-19T04:52:53;6.15;;;4.40;;
43744;SDS011;29359;53.048;8.732;2023-06-19T04:54:55;8.77;;;4.85;;
43744;SDS011;29359;53.048;8.732;2023-06-19T04:56:56;8.15;;;4.35;;
43744;SDS011;29359;53.048;8.732;2023-06-19T04:58:58;6.32;;;4.70;;
43744;SDS011;29359;53.048;8.732;2023-06-19T05:01:01;7.80;;;4.70;;
43744;SDS011;29359;53.048;8.732;2023-06-19T05:03:02;5.50;;;5.00;;
43744;SDS011;29359;53.048;8.732;2023-06-19T05:05:04;10.68;;;4.53;;
43744;SDS011;29359;53.048;8.732;2023-06-19T05:07:06;7.05;;;4.38;;
43744;SDS011;29359;53.048;8.732;2023-06-19T05:09:07;7.75;;;4.65;;
43744;SDS011;29359;53.048;8.732;2023-06-19T05:11:09;5.50;;;4.50;;
43744;SDS011;29359;53.048;8.732;2023-06-19T05:13:11;5.25;;;4.75;;
43744;SDS011;29359;53.048;8.732;2023-06-19T05:15:12;7.03;;;4.63;;
43744;SDS011;29359;53.048;8.732;2023-06-19T05:17:14;9.18;;;4.80;;
43744;SDS011;29359;53.048;8.732;2023-06-19T05:19:16;4.70;;;4.30;;
43744;SDS011;29359;53.048;8.732;2023-06-19T05:21:17;6.53;;;4.60;;
43744;SDS011;29359;53.048;8.732;2023-06-19T05:23:20;7.63;;;4.60;;
43744;SDS011;29359;53.048;8.732;2023-06-19T05:25:21;5.30;;;4.18;;
43744;SDS011;29359;53.048;8.732;2023-06-19T05:27:26;7.07;;;4.45;;
43744;SDS011;29359;53.048;8.732;2023-06-19T05:29:31;5.25;;;4.85;;
43744;SDS011;29359;53.048;8.732;2023-06-19T05:31:33;5.82;;;4.80;;
43744;SDS011;29359;53.048;8.732;2023-06-19T05:33:35;5.97;;;4.82;;
43744;SDS011;29359;53.048;8.732;2023-06-19T05:35:37;4.80;;;4.50;;
43744;SDS011;29359;53.048;8.732;2023-06-19T05:37:38;5.07;;;4.57;;
43744;SDS011;29359;53.048;8.732;2023-06-19T05:39:40;8.85;;;4.75;;
43744;SDS011;29359;53.048;8.732;2023-06-19T05:41:42;8.68;;;4.95;;
43744;SDS011;29359;53.048;8.732;2023-06-19T05:43:46;5.25;;;4.85;;
43744;SDS011;29359;53.048;8.732;2023-06-19T05:45:48;5.13;;;4.72;;
43744;SDS011;29359;53.048;8.732;2023-06-19T05:47:49;8.85;;;5.13;;
43744;SDS011;29359;53.048;8.732;2023-06-19T05:49:51;5.45;;;4.70;;
43744;SDS011;29359;53.048;8.732;2023-06-19T05:51:53;4.65;;;4.25;;
43744;SDS011;29359;53.048;8.732;2023-06-19T05:53:54;7.75;;;4.63;;
43744;SDS011;29359;53.048;8.732;2023-06-19T05:56:00;5.15;;;4.70;;
43744;SDS011;29359;53.048;8.732;2023-06-19T05:58:02;5.03;;;4.70;;
43744;SDS011;29359;53.048;8.732;2023-06-19T06:00:05;4.93;;;4.55;;
43744;SDS011;29359;53.048;8.732;2023-06-19T06:02:08;5.18;;;4.55;;
43744;SDS011;29359;53.048;8.732;2023-06-19T06:04:09;7.22;;;4.88;;
43744;SDS011;29359;53.048;8.732;2023-06-19T06:06:11;6.63;;;4.88;;
43744;SDS011;29359;53.048;8.732;2023-06-19T06:08:12;4.75;;;4.45;;
43744;SDS011;29359;53.048;8.732;2023-06-19T06:10:14;5.78;;;5.00;;
43744;SDS011;29359;53.048;8.732;2023-06-19T06:12:18;6.95;;;4.35;;
43744;SDS011;29359;53.048;8.732;2023-06-19T06:14:19;12.45;;;4.80;;
43744;SDS011;29359;53.048;8.732;2023-06-19T06:16:21;5.65;;;4.47;;
43744;SDS011;29359;53.048;8.732;2023-06-19T06:18:22;6.43;;;5.45;;
43744;SDS011;29359;53.048;8.732;2023-06-19T06:20:24;6.18;;;4.80;;
43744;SDS011;29359;53.048;8.732;2023-06-19T06:22:26;12.80;;;5.15;;
43744;SDS011;29359;53.048;8.732;2023-06-19T06:24:27;7.30;;;4.60;;
43744;SDS011;29359;53.048;8.732;2023-06-19T06:26:29;5.07;;;4.57;;
43744;SDS011;29359;53.048;8.732;2023-06-19T06:28:31;6.35;;;4.57;;
43744;SDS011;29359;53.048;8.732;2023-06-19T06:30:32;5.20;;;4.70;;
43744;SDS011;29359;53.048;8.732;2023-06-19T06:32:34;6.85;;;4.28;;
43744;SDS011;29359;53.048;8.732;2023-06-19T06:34:36;5.78;;;4.35;;
43744;SDS011;29359;53.048;8.732;2023-06-19T06:36:37;5.40;;;4.63;;
43744;SDS011;29359;53.048;8.732;2023-06-19T06:38:53;5.72;;;4.35;;
43744;SDS011;29359;53.048;8.732;2023-06-19T06:40:54;6.93;;;4.78;;
43744;SDS011;29359;53.048;8.732;2023-06-19T06:42:56;12.43;;;4.57;;
43744;SDS011;29359;53.048;8.732;2023-06-19T06:44:58;4.85;;;4.45;;
43744;SDS011;29359;53.048;8.732;2023-06-19T06:46:59;10.02;;;4.68;;
43744;SDS011;29359;53.048;8.732;2023-06-19T06:49:01;5.28;;;4.78;;
43744;SDS011;29359;53.048;8.732;2023-06-19T06:51:02;11.50;;;4.40;;
43744;SDS011;29359;53.048;8.732;2023-06-19T06:53:04;7.47;;;4.30;;
43744;SDS011;29359;53.048;8.732;2023-06-19T06:55:06;6.00;;;4.28;;
43744;SDS011;29359;53.048;8.732;2023-06-19T06:57:07;6.97;;;4.40;;
43744;SDS011;29359;53.048;8.732;2023-06-19T06:59:09;5.88;;;4.70;;
43744;SDS011;29359;53.048;8.732;2023-06-19T07:01:10;5.05;;;4.57;;
43744;SDS011;29359;53.048;8.732;2023-06-19T07:03:12;6.00;;;4.15;;
43744;SDS011;29359;53.048;8.732;2023-06-19T07:05:14;5.72;;;4.38;;
43744;SDS011;29359;53.048;8.732;2023-06-19T07:07:16;8.27;;;4.78;;
43744;SDS011;29359;53.048;8.732;2023-06-19T07:09:17;8.43;;;4.28;;
43744;SDS011;29359;53.048;8.732;2023-06-19T07:11:19;4.63;;;3.90;;
43744;SDS011;29359;53.048;8.732;2023-06-19T07:13:20;4.55;;;4.18;;
43744;SDS011;29359;53.048;8.732;2023-06-19T07:15:22;6.88;;;4.35;;
43744;SDS011;29359;53.048;8.732;2023-06-19T07:17:23;4.60;;;4.20;;
43744;SDS011;29359;53.048;8.732;2023-06-19T07:19:25;4.22;;;3.88;;
43744;SDS011;29359;53.048;8.732;2023-06-19T07:21:27;4.82;;;4.22;;
43744;SDS011;29359;53.048;8.732;2023-06-19T07:23:29;6.50;;;4.43;;
43744;SDS011;29359;53.048;8.732;2023-06-19T07:25:31;4.38;;;3.88;;
43744;SDS011;29359;53.048;8.732;2023-06-19T07:27:34;5.38;;;4.68;;
43744;SDS011;29359;53.048;8.732;2023-06-19T07:29:37;4.18;;;3.80;;
43744;SDS011;29359;53.048;8.732;2023-06-19T07:31:38;4.53;;;4.03;;
43744;SDS011;29359;53.048;8.732;2023-06-19T07:33:40;7.35;;;4.05;;
43744;SDS011;29359;53.048;8.732;2023-06-19T07:35:41;5.90;;;3.70;;
43744;SDS011;29359;53.048;8.732;2023-06-19T07:37:44;4.05;;;3.20;;
43744;SDS011;29359;53.048;8.732;2023-06-19T07:39:46;4.50;;;3.65;;
43744;SDS011;29359;53.048;8.732;2023-06-19T07:41:48;3.83;;;3.53;;
43744;SDS011;29359;53.048;8.732;2023-06-19T07:43:50;5.43;;;3.35;;
43744;SDS011;29359;53.048;8.732;2023-06-19T07:45:51;5.57;;;3.60;;
43744;SDS011;29359;53.048;8.732;2023-06-19T07:47:54;5.15;;;3.20;;
43744;SDS011;29359;53.048;8.732;2023-06-19T07:49:58;4.07;;;3.20;;
43744;SDS011;29359;53.048;8.732;2023-06-19T07:52:00;6.63;;;3.65;;
43744;SDS011;29359;53.048;8.732;2023-06-19T07:54:02;3.92;;;3.53;;
43744;SDS011;29359;53.048;8.732;2023-06-19T07:56:03;3.58;;;3.28;;
43744;SDS011;29359;53.048;8.732;2023-06-19T07:58:05;4.78;;;3.53;;
43744;SDS011;29359;53.048;8.732;2023-06-19T08:00:07;7.47;;;3.67;;
43744;SDS011;29359;53.048;8.732;2023-06-19T08:02:12;5.55;;;3.53;;
43744;SDS011;29359;53.048;8.732;2023-06-19T08:04:14;6.18;;;5.57;;
43744;SDS011;29359;53.048;8.732;2023-06-19T08:06:15;3.92;;;3.30;;
43744;SDS011;29359;53.048;8.732;2023-06-19T08:08:17;4.00;;;3.67;;
43744;SDS011;29359;53.048;8.732;2023-06-19T08:10:19;5.03;;;3.47;;
43744;SDS011;29359;53.048;8.732;2023-06-19T08:12:20;8.88;;;3.63;;
43744;SDS011;29359;53.048;8.732;2023-06-19T08:14:22;4.68;;;3.28;;
43744;SDS011;29359;53.048;8.732;2023-06-19T08:16:24;4.53;;;3.60;;
43744;SDS011;29359;53.048;8.732;2023-06-19T08:18:27;4.05;;;3.75;;
43744;SDS011;29359;53.048;8.732;2023-06-19T08:20:29;5.45;;;3.97;;
43744;SDS011;29359;53.048;8.732;2023-06-19T08:22:31;16.27;;;4.38;;
43744;SDS011;29359;53.048;8.732;2023-06-19T08:24:33;14.10;;;4.38;;
43744;SDS011;29359;53.048;8.732;2023-06-19T08:26:35;3.65;;;3.33;;
43744;SDS011;29359;53.048;8.732;2023-06-19T08:28:37;11.80;;;3.50;;
43744;SDS011;29359;53.048;8.732;2023-06-19T08:30:38;6.30;;;3.35;;
43744;SDS011;29359;53.048;8.732;2023-06-19T08:32:40;6.80;;;3.78;;
43744;SDS011;29359;53.048;8.732;2023-06-19T08:34:42;6.93;;;3.67;;
43744;SDS011;29359;53.048;8.732;2023-06-19T08:36:43;7.95;;;3.47;;
43744;SDS011;29359;53.048;8.732;2023-06-19T08:38:45;9.10;;;3.53;;
43744;SDS011;29359;53.048;8.732;2023-06-19T08:40:50;4.32;;;3.90;;
43744;SDS011;29359;53.048;8.732;2023-06-19T08:42:52;3.75;;;3.45;;
43744;SDS011;29359;53.048;8.732;2023-06-19T08:44:53;7.38;;;3.40;;
43744;SDS011;29359;53.048;8.732;2023-06-19T08:46:55;5.97;;;3.42;;
43744;SDS011;29359;53.048;8.732;2023-06-19T08:48:58;7.03;;;3.85;;
43744;SDS011;29359;53.048;8.732;2023-06-19T08:51:01;5.88;;;3.30;;
43744;SDS011;29359;53.048;8.732;2023-06-19T08:53:05;3.40;;;3.17;;
43744;SDS011;29359;53.048;8.732;2023-06-19T08:55:07;3.28;;;2.97;;
43744;SDS011;29359;53.048;8.732;2023-06-19T08:57:10;10.00;;;3.55;;
43744;SDS011;29359;53.048;8.732;2023-06-19T08:59:13;4.43;;;2.90;;
43744;SDS011;29359;53.048;8.732;2023-06-19T09:01:17;4.20;;;3.05;;
43744;SDS011;29359;53.048;8.732;2023-06-19T09:03:20;4.45;;;3.38;;
43744;SDS011;29359;53.048;8.732;2023-06-19T09:05:23;4.18;;;3.40;;
43744;SDS011;29359;53.048;8.732;2023-06-19T09:07:24;5.32;;;3.30;;
43744;SDS011;29359;53.048;8.732;2023-06-19T09:09:27;10.05;;;3.45;;
43744;SDS011;29359;53.048;8.732;2023-06-19T09:11:29;6.80;;;3.00;;
43744;SDS011;29359;53.048;8.732;2023-06-19T09:13:31;5.45;;;3.05;;
43744;SDS011;29359;53.048;8.732;2023-06-19T09:15:37;4.32;;;3.10;;
43744;SDS011;29359;53.048;8.732;2023-06-19T09:17:39;2.97;;;2.78;;
43744;SDS011;29359;53.048;8.732;2023-06-19T09:19:47;3.65;;;3.10;;
43744;SDS011;29359;53.048;8.732;2023-06-19T09:21:50;5.65;;;2.90;;
43744;SDS011;29359;53.048;8.732;2023-06-19T09:23:51;3.10;;;2.58;;
43744;SDS011;29359;53.048;8.732;2023-06-19T09:25:53;4.35;;;2.90;;
43744;SDS011;29359;53.048;8.732;2023-06-19T09:27:58;4.47;;;2.58;;
43744;SDS011;29359;53.048;8.732;2023-06-19T09:30:00;3.95;;;2.65;;
43744;SDS011;29359;53.048;8.732;2023-06-19T09:32:02;3.97;;;2.47;;
43744;SDS011;29359;53.048;8.732;2023-06-19T09:34:04;2.45;;;2.25;;
43744;SDS011;29359;53.048;8.732;2023-06-19T09:36:06;8.30;;;2.10;;
43744;SDS011;29359;53.048;8.732;2023-06-19T09:38:08;7.90;;;2.60;;
43744;SDS011;29359;53.048;8.732;2023-06-19T09:40:10;11.48;;;2.30;;
43744;SDS011;29359;53.048;8.732;2023-06-19T09:42:12;3.85;;;1.90;;
43744;SDS011;29359;53.048;8.732;2023-06-19T09:44:16;8.20;;;1.90;;
43744;SDS011;29359;53.048;8.732;2023-06-19T09:46:24;4.68;;;2.17;;
43744;SDS011;29359;53.048;8.732;2023-06-19T09:48:32;4.88;;;2.25;;
43744;SDS011;29359;53.048;8.732;2023-06-19T09:50:36;8.93;;;2.00;;
43744;SDS011;29359;53.048;8.732;2023-06-19T09:52:42;4.63;;;2.13;;
43744;SDS011;29359;53.048;8.732;2023-06-19T09:54:45;2.72;;;2.10;;
43744;SDS011;29359;53.048;8.732;2023-06-19T09:56:47;4.28;;;2.28;;
43744;SDS011;29359;53.048;8.732;2023-06-19T09:58:53;8.88;;;2.53;;
43744;SDS011;29359;53.048;8.732;2023-06-19T10:00:57;3.67;;;2.20;;
43744;SDS011;29359;53.048;8.732;2023-06-19T10:03:00;3.30;;;2.00;;
43744;SDS011;29359;53.048;8.732;2023-06-19T10:05:04;3.83;;;2.28;;
43744;SDS011;29359;53.048;8.732;2023-06-19T10:07:14;6.10;;;2.15;;
43744;SDS011;29359;53.048;8.732;2023-06-19T10:09:16;2.20;;;2.00;;
43744;SDS011;29359;53.048;8.732;2023-06-19T10:11:21;2.63;;;1.60;;
43744;SDS011;29359;53.048;8.732;2023-06-19T10:13:30;5.00;;;2.20;;
43744;SDS011;29359;53.048;8.732;2023-06-19T10:15:34;4.53;;;2.22;;
43744;SDS011;29359;53.048;8.732;2023-06-19T10:17:49;10.13;;;1.88;;
43744;SDS011;29359;53.048;8.732;2023-06-19T10:20:21;5.00;;;2.10;;
43744;SDS011;29359;53.048;8.732;2023-06-19T10:22:23;2.60;;;1.98;;
43744;SDS011;29359;53.048;8.732;2023-06-19T10:24:33;5.45;;;2.13;;
43744;SDS011;29359;53.048;8.732;2023-06-19T10:26:36;4.10;;;2.50;;
43744;SDS011;29359;53.048;8.732;2023-06-19T10:28:39;7.13;;;2.50;;
43744;SDS011;29359;53.048;8.732;2023-06-19T10:30:41;3.25;;;3.05;;
43744;SDS011;29359;53.048;8.732;2023-06-19T10:32:43;3.13;;;2.80;;
43744;SDS011;29359;53.048;8.732;2023-06-19T10:34:45;3.35;;;3.10;;
43744;SDS011;29359;53.048;8.732;2023-06-19T10:36:51;3.45;;;3.15;;
43744;SDS011;29359;53.048;8.732;2023-06-19T10:38:56;3.95;;;2.88;;
43744;SDS011;29359;53.048;8.732;2023-06-19T10:40:58;4.40;;;3.33;;
43744;SDS011;29359;53.048;8.732;2023-06-19T10:42:59;16.83;;;5.00;;
43744;SDS011;29359;53.048;8.732;2023-06-19T10:45:04;4.47;;;4.18;;
43744;SDS011;29359;53.048;8.732;2023-06-19T10:47:08;7.45;;;4.30;;
43744;SDS011;29359;53.048;8.732;2023-06-19T10:49:09;5.35;;;4.80;;
43744;SDS011;29359;53.048;8.732;2023-06-19T10:51:13;6.43;;;4.78;;
43744;SDS011;29359;53.048;8.732;2023-06-19T10:53:31;5.90;;;5.40;;
43744;SDS011;29359;53.048;8.732;2023-06-19T10:55:34;7.57;;;5.65;;
43744;SDS011;29359;53.048;8.732;2023-06-19T10:57:37;6.95;;;6.35;;
43744;SDS011;29359;53.048;8.732;2023-06-19T10:59:39;8.90;;;6.22;;
43744;SDS011;29359;53.048;8.732;2023-06-19T11:01:41;6.38;;;5.82;;
43744;SDS011;29359;53.048;8.732;2023-06-19T11:03:45;6.35;;;5.95;;
43744;SDS011;29359;53.048;8.732;2023-06-19T11:05:47;9.80;;;5.25;;
43744;SDS011;29359;53.048;8.732;2023-06-19T11:07:56;5.10;;;4.30;;
43744;SDS011;29359;53.048;8.732;2023-06-19T11:09:59;4.43;;;3.40;;
43744;SDS011;29359;53.048;8.732;2023-06-19T11:12:01;4.50;;;3.17;;
43744;SDS011;29359;53.048;8.732;2023-06-19T11:14:03;3.85;;;3.58;;
43744;SDS011;29359;53.048;8.732;2023-06-19T11:16:05;4.30;;;3.70;;
43744;SDS011;29359;53.048;8.732;2023-06-19T11:18:07;4.03;;;3.60;;
43744;SDS011;29359;53.048;8.732;2023-06-19T11:20:10;3.40;;;3.20;;
43744;SDS011;29359;53.048;8.732;2023-06-19T11:22:12;3.60;;;3.38;;
43744;SDS011;29359;53.048;8.732;2023-06-19T11:24:14;6.18;;;3.97;;
43744;SDS011;29359;53.048;8.732;2023-06-19T11:26:17;3.53;;;3.22;;
43744;SDS011;29359;53.048;8.732;2023-06-19T11:28:18;11.27;;;4.53;;
43744;SDS011;29359;53.048;8.732;2023-06-19T11:30:29;4.07;;;3.42;;
43744;SDS011;29359;53.048;8.732;2023-06-19T11:32:34;6.18;;;3.97;;
43744;SDS011;29359;53.048;8.732;2023-06-19T11:34:42;3.80;;;3.50;;
43744;SDS011;29359;53.048;8.732;2023-06-19T11:36:45;4.07;;;3.55;;
43744;SDS011;29359;53.048;8.732;2023-06-19T11:38:48;7.28;;;3.45;;
43744;SDS011;29359;53.048;8.732;2023-06-19T11:40:50;4.90;;;3.72;;
43744;SDS011;29359;53.048;8.732;2023-06-19T11:42:52;3.40;;;3.20;;
43744;SDS011;29359;53.048;8.732;2023-06-19T11:45:04;3.83;;;3.17;;
43744;SDS011;29359;53.048;8.732;2023-06-19T11:47:10;4.32;;;3.92;;
43744;SDS011;29359;53.048;8.732;2023-06-19T11:49:12;4.63;;;4.28;;
43744;SDS011;29359;53.048;8.732;2023-06-19T11:51:15;5.00;;;4.50;;
43744;SDS011;29359;53.048;8.732;2023-06-19T11:53:16;7.68;;;5.20;;
43744;SDS011;29359;53.048;8.732;2023-06-19T11:55:18;5.22;;;4.63;;
43744;SDS011;29359;53.048;8.732;2023-06-19T11:57:19;6.35;;;4.88;;
43744;SDS011;29359;53.048;8.732;2023-06-19T11:59:21;8.70;;;5.32;;
43744;SDS011;29359;53.048;8.732;2023-06-19T12:01:22;6.43;;;5.18;;
43744;SDS011;29359;53.048;8.732;2023-06-19T12:03:24;5.50;;;4.88;;
43744;SDS011;29359;53.048;8.732;2023-06-19T12:05:26;8.38;;;3.92;;
43744;SDS011;29359;53.048;8.732;2023-06-19T12:07:27;4.15;;;3.42;;
43744;SDS011;29359;53.048;8.732;2023-06-19T12:09:29;4.95;;;3.47;;
43744;SDS011;29359;53.048;8.732;2023-06-19T12:11:33;4.00;;;3.10;;
43744;SDS011;29359;53.048;8.732;2023-06-19T12:13:34;8.43;;;3.00;;
43744;SDS011;29359;53.048;8.732;2023-06-19T12:15:36;8.45;;;3.13;;
43744;SDS011;29359;53.048;8.732;2023-06-19T12:17:38;7.45;;;3.95;;
43744;SDS011;29359;53.048;8.732;2023-06-19T12:19:40;4.18;;;3.67;;